sensor_id;sensor_type;location;lat;lon;timestamp;pressure;altitude;pressure_sealevel;temperature;humidity
47280;BME280;34064;44.942;0.008;2023-01-26T00:01:33;99861.69;;;5.97;66.13
47280;BME280;34064;44.942;0.008;2023-01-26T00:04:04;99855.56;;;5.97;66.22
47280;BME280;34064;44.942;0.008;2023-01-26T00:06:31;99859.13;;;5.96;66.07
47280;BME280;34064;44.942;0.008;2023-01-26T00:08:59;99857.41;;;5.94;66.31
47280;BME280;34064;44.942;0.008;2023-01-26T00:11:28;99855.56;;;5.97;66.04
47280;BME280;34064;44.942;0.008;2023-01-26T00:13:58;99857.50;;;5.91;66.30
47280;BME280;34064;44.942;0.008;2023-01-26T00:16:26;99865.56;;;5.88;66.12
47280;BME280;34064;44.942;0.008;2023-01-26T00:18:54;99872.69;;;5.86;66.35
47280;BME280;34064;44.942;0.008;2023-01-26T00:21:23;99871.94;;;5.83;66.23
47280;BME280;34064;44.942;0.008;2023-01-26T00:23:52;99865.75;;;5.84;66.26
47280;BME280;34064;44.942;0.008;2023-01-26T00:26:21;99860.34;;;5.87;66.31
47280;BME280;34064;44.942;0.008;2023-01-26T00:28:50;99852.59;;;5.82;66.30
47280;BME280;34064;44.942;0.008;2023-01-26T00:31:22;99856.31;;;5.78;66.22
47280;BME280;34064;44.942;0.008;2023-01-26T00:33:51;99855.38;;;5.79;66.32
47280;BME280;34064;44.942;0.008;2023-01-26T00:36:19;99847.59;;;5.76;66.41
47280;BME280;34064;44.942;0.008;2023-01-26T00:38:47;99848.44;;;5.76;66.50
47280;BME280;34064;44.942;0.008;2023-01-26T00:41:15;99849.25;;;5.78;66.42
47280;BME280;34064;44.942;0.008;2023-01-26T00:44:17;99848.94;;;5.86;66.11
47280;BME280;34064;44.942;0.008;2023-01-26T00:46:45;99849.44;;;5.74;66.44
47280;BME280;34064;44.942;0.008;2023-01-26T00:49:12;99854.69;;;5.74;66.36
47280;BME280;34064;44.942;0.008;2023-01-26T00:51:39;99844.88;;;5.77;66.40
47280;BME280;34064;44.942;0.008;2023-01-26T00:54:05;99849.38;;;5.75;66.24
47280;BME280;34064;44.942;0.008;2023-01-26T00:56:31;99845.94;;;5.73;66.46
47280;BME280;34064;44.942;0.008;2023-01-26T00:58:59;99841.31;;;5.78;66.32
47280;BME280;34064;44.942;0.008;2023-01-26T01:01:29;99842.44;;;5.73;66.07
47280;BME280;34064;44.942;0.008;2023-01-26T01:03:57;99852.13;;;5.72;66.10
47280;BME280;34064;44.942;0.008;2023-01-26T01:06:24;99846.75;;;5.75;66.08
47280;BME280;34064;44.942;0.008;2023-01-26T01:08:51;99843.41;;;5.70;66.15
47280;BME280;34064;44.942;0.008;2023-01-26T01:11:19;99841.41;;;5.77;65.89
47280;BME280;34064;44.942;0.008;2023-01-26T01:13:46;99841.50;;;5.74;65.62
47280;BME280;34064;44.942;0.008;2023-01-26T01:16:15;99838.31;;;5.66;65.84
47280;BME280;34064;44.942;0.008;2023-01-26T01:18:43;99835.69;;;5.66;65.93
47280;BME280;34064;44.942;0.008;2023-01-26T01:21:16;99842.78;;;5.63;65.97
47280;BME280;34064;44.942;0.008;2023-01-26T01:23:43;99842.94;;;5.60;65.96
47280;BME280;34064;44.942;0.008;2023-01-26T01:26:11;99844.69;;;5.60;66.09
47280;BME280;34064;44.942;0.008;2023-01-26T01:28:43;99843.72;;;5.62;66.17
47280;BME280;34064;44.942;0.008;2023-01-26T01:31:13;99841.22;;;5.59;65.91
47280;BME280;34064;44.942;0.008;2023-01-26T01:33:41;99843.72;;;5.62;65.81
47280;BME280;34064;44.942;0.008;2023-01-26T01:36:12;99842.94;;;5.60;65.96
47280;BME280;34064;44.942;0.008;2023-01-26T01:38:44;99846.22;;;5.66;65.61
47280;BME280;34064;44.942;0.008;2023-01-26T01:41:18;99838.44;;;5.62;65.49
47280;BME280;34064;44.942;0.008;2023-01-26T01:43:46;99843.13;;;5.56;65.66
47280;BME280;34064;44.942;0.008;2023-01-26T01:51:32;99824.78;;;5.53;65.47
47280;BME280;34064;44.942;0.008;2023-01-26T01:54:03;99828.44;;;5.49;65.36
47280;BME280;34064;44.942;0.008;2023-01-26T01:56:39;99831.94;;;5.49;65.46
47280;BME280;34064;44.942;0.008;2023-01-26T01:59:10;99839.97;;;5.46;65.60
47280;BME280;34064;44.942;0.008;2023-01-26T02:01:37;99825.78;;;5.50;65.69
47280;BME280;34064;44.942;0.008;2023-01-26T02:04:06;99834.69;;;5.46;65.46
47280;BME280;34064;44.942;0.008;2023-01-26T02:09:04;99817.06;;;5.48;65.46
47280;BME280;34064;44.942;0.008;2023-01-26T02:11:40;99822.31;;;5.48;65.51
47280;BME280;34064;44.942;0.008;2023-01-26T02:14:14;99810.88;;;5.49;65.27
47280;BME280;34064;44.942;0.008;2023-01-26T02:16:42;99806.63;;;5.45;65.52
47280;BME280;34064;44.942;0.008;2023-01-26T02:19:17;99796.97;;;5.45;65.26
47280;BME280;34064;44.942;0.008;2023-01-26T02:21:49;99796.97;;;5.45;65.56
47280;BME280;34064;44.942;0.008;2023-01-26T02:24:21;99784.69;;;5.44;65.52
47280;BME280;34064;44.942;0.008;2023-01-26T02:26:52;99776.72;;;5.46;65.33
47280;BME280;34064;44.942;0.008;2023-01-26T02:29:20;99767.09;;;5.45;65.73
47280;BME280;34064;44.942;0.008;2023-01-26T02:31:47;99764.34;;;5.48;65.13
47280;BME280;34064;44.942;0.008;2023-01-26T02:34:15;99754.91;;;5.42;65.15
47280;BME280;34064;44.942;0.008;2023-01-26T02:36:41;99746.91;;;5.44;65.12
47280;BME280;34064;44.942;0.008;2023-01-26T02:42:05;99755.88;;;5.40;65.08
47280;BME280;34064;44.942;0.008;2023-01-26T02:44:50;99752.44;;;5.38;65.40
47280;BME280;34064;44.942;0.008;2023-01-26T02:47:19;99752.34;;;5.41;65.32
47280;BME280;34064;44.942;0.008;2023-01-26T02:49:46;99736.53;;;5.41;65.23
47280;BME280;34064;44.942;0.008;2023-01-26T02:52:20;99740.06;;;5.40;65.46
47280;BME280;34064;44.942;0.008;2023-01-26T02:54:46;99735.59;;;5.42;65.38
47280;BME280;34064;44.942;0.008;2023-01-26T02:57:35;99733.81;;;5.42;65.37
47280;BME280;34064;44.942;0.008;2023-01-26T03:00:07;99741.78;;;5.41;65.34
47280;BME280;34064;44.942;0.008;2023-01-26T03:02:35;99726.00;;;5.41;65.17
47280;BME280;34064;44.942;0.008;2023-01-26T03:05:05;99726.03;;;5.39;65.39
47280;BME280;34064;44.942;0.008;2023-01-26T03:07:33;99726.91;;;5.40;65.30
47280;BME280;34064;44.942;0.008;2023-01-26T03:10:02;99726.03;;;5.39;65.31
47280;BME280;34064;44.942;0.008;2023-01-26T03:12:28;99724.38;;;5.37;65.17
47280;BME280;34064;44.942;0.008;2023-01-26T03:14:57;99727.00;;;5.37;65.14
47280;BME280;34064;44.942;0.008;2023-01-26T03:17:43;99716.44;;;5.38;65.24
47280;BME280;34064;44.942;0.008;2023-01-26T03:20:11;99719.91;;;5.39;65.15
47280;BME280;34064;44.942;0.008;2023-01-26T03:22:57;99718.31;;;5.35;65.14
47280;BME280;34064;44.942;0.008;2023-01-26T03:25:42;99715.56;;;5.38;65.13
47280;BME280;34064;44.942;0.008;2023-01-26T03:28:28;99713.84;;;5.37;65.18
47280;BME280;34064;44.942;0.008;2023-01-26T03:30:56;99709.56;;;5.34;65.04
47280;BME280;34064;44.942;0.008;2023-01-26T03:33:24;99705.94;;;5.37;65.31
47280;BME280;34064;44.942;0.008;2023-01-26T03:35:53;99705.81;;;5.40;65.18
47280;BME280;34064;44.942;0.008;2023-01-26T03:38:24;99703.19;;;5.40;65.29
47280;BME280;34064;44.942;0.008;2023-01-26T03:40:55;99698.75;;;5.40;65.19
47280;BME280;34064;44.942;0.008;2023-01-26T03:43:41;99694.38;;;5.41;64.91
47280;BME280;34064;44.942;0.008;2023-01-26T03:46:27;99690.94;;;5.39;64.98
47280;BME280;34064;44.942;0.008;2023-01-26T03:49:12;99691.84;;;5.38;64.96
47280;BME280;34064;44.942;0.008;2023-01-26T03:51:56;99691.13;;;5.34;65.04
47280;BME280;34064;44.942;0.008;2023-01-26T03:54:41;99691.19;;;5.33;65.21
47280;BME280;34064;44.942;0.008;2023-01-26T03:57:28;99692.75;;;5.37;65.03
47280;BME280;34064;44.942;0.008;2023-01-26T03:59:55;99691.03;;;5.36;65.12
47280;BME280;34064;44.942;0.008;2023-01-26T04:02:21;99689.31;;;5.35;64.95
47280;BME280;34064;44.942;0.008;2023-01-26T04:05:06;99680.56;;;5.34;65.18
47280;BME280;34064;44.942;0.008;2023-01-26T04:07:51;99685.00;;;5.34;65.36
47280;BME280;34064;44.942;0.008;2023-01-26T04:10:36;99678.78;;;5.35;65.29
47280;BME280;34064;44.942;0.008;2023-01-26T04:13:03;99676.94;;;5.37;65.21
47280;BME280;34064;44.942;0.008;2023-01-26T04:15:48;99672.75;;;5.33;65.09
47280;BME280;34064;44.942;0.008;2023-01-26T04:18:33;99679.84;;;5.30;65.25
47280;BME280;34064;44.942;0.008;2023-01-26T04:21:20;99679.03;;;5.28;65.25
47280;BME280;34064;44.942;0.008;2023-01-26T04:23:58;99669.38;;;5.29;65.15
47280;BME280;34064;44.942;0.008;2023-01-26T04:26:31;99664.84;;;5.33;65.17
47280;BME280;34064;44.942;0.008;2023-01-26T04:29:10;99663.13;;;5.31;65.07
47280;BME280;34064;44.942;0.008;2023-01-26T04:31:38;99662.25;;;5.31;65.01
47280;BME280;34064;44.942;0.008;2023-01-26T04:34:08;99660.47;;;5.31;65.02
47280;BME280;34064;44.942;0.008;2023-01-26T04:36:36;99655.22;;;5.31;65.15
47280;BME280;34064;44.942;0.008;2023-01-26T04:39:03;99660.69;;;5.27;65.10
47280;BME280;34064;44.942;0.008;2023-01-26T04:41:31;99658.78;;;5.30;65.12
47280;BME280;34064;44.942;0.008;2023-01-26T04:43:58;99654.53;;;5.26;65.41
47280;BME280;34064;44.942;0.008;2023-01-26T04:46:25;99658.97;;;5.26;65.33
47280;BME280;34064;44.942;0.008;2023-01-26T04:48:52;99657.97;;;5.28;65.08
47280;BME280;34064;44.942;0.008;2023-01-26T04:51:23;99650.88;;;5.30;65.01
47280;BME280;34064;44.942;0.008;2023-01-26T04:53:50;99651.78;;;5.29;64.83
47280;BME280;34064;44.942;0.008;2023-01-26T04:56:28;99648.31;;;5.29;65.05
47280;BME280;34064;44.942;0.008;2023-01-26T04:59:00;99647.31;;;5.31;64.99
47280;BME280;34064;44.942;0.008;2023-01-26T05:01:33;99639.25;;;5.35;65.20
47280;BME280;34064;44.942;0.008;2023-01-26T05:04:01;99640.06;;;5.37;65.21
47280;BME280;34064;44.942;0.008;2023-01-26T05:06:29;99647.03;;;5.38;64.97
47280;BME280;34064;44.942;0.008;2023-01-26T05:08:56;99630.44;;;5.36;64.90
47280;BME280;34064;44.942;0.008;2023-01-26T05:11:23;99632.22;;;5.35;64.96
47280;BME280;34064;44.942;0.008;2023-01-26T05:13:52;99630.44;;;5.36;65.14
47280;BME280;34064;44.942;0.008;2023-01-26T05:16:19;99625.13;;;5.37;64.96
47280;BME280;34064;44.942;0.008;2023-01-26T05:18:47;99625.97;;;5.38;64.90
47280;BME280;34064;44.942;0.008;2023-01-26T05:21:14;99628.72;;;5.35;65.08
47280;BME280;34064;44.942;0.008;2023-01-26T05:23:42;99629.66;;;5.34;65.00
47280;BME280;34064;44.942;0.008;2023-01-26T05:26:09;99631.34;;;5.35;65.09
47280;BME280;34064;44.942;0.008;2023-01-26T05:28:37;99618.13;;;5.36;65.08
47280;BME280;34064;44.942;0.008;2023-01-26T05:31:04;99615.44;;;5.38;65.06
47280;BME280;34064;44.942;0.008;2023-01-26T05:33:32;99616.22;;;5.40;65.09
47280;BME280;34064;44.942;0.008;2023-01-26T05:36:05;99603.84;;;5.42;65.13
47280;BME280;34064;44.942;0.008;2023-01-26T05:38:33;99597.78;;;5.40;65.15
47280;BME280;34064;44.942;0.008;2023-01-26T05:41:01;99600.41;;;5.40;65.08
47280;BME280;34064;44.942;0.008;2023-01-26T05:43:27;99602.13;;;5.41;65.08
47280;BME280;34064;44.942;0.008;2023-01-26T05:45:58;99601.22;;;5.42;65.07
47280;BME280;34064;44.942;0.008;2023-01-26T05:48:29;99593.31;;;5.42;65.08
47280;BME280;34064;44.942;0.008;2023-01-26T05:50:56;99591.59;;;5.41;65.07
47280;BME280;34064;44.942;0.008;2023-01-26T05:53:24;99594.22;;;5.41;64.98
47280;BME280;34064;44.942;0.008;2023-01-26T05:55:52;99585.41;;;5.42;65.04
47280;BME280;34064;44.942;0.008;2023-01-26T05:58:19;99585.41;;;5.42;65.18
47280;BME280;34064;44.942;0.008;2023-01-26T06:00:50;99592.38;;;5.43;65.10
47280;BME280;34064;44.942;0.008;2023-01-26T06:03:17;99583.59;;;5.42;65.04
47280;BME280;34064;44.942;0.008;2023-01-26T06:05:52;99591.50;;;5.42;65.14
47280;BME280;34064;44.942;0.008;2023-01-26T06:08:20;99585.41;;;5.42;65.22
47280;BME280;34064;44.942;0.008;2023-01-26T06:10:50;99581.84;;;5.43;65.04
47280;BME280;34064;44.942;0.008;2023-01-26T06:13:18;99580.13;;;5.42;65.05
47280;BME280;34064;44.942;0.008;2023-01-26T06:15:45;99581.84;;;5.43;65.10
47280;BME280;34064;44.942;0.008;2023-01-26T06:18:13;99580.91;;;5.44;65.10
47280;BME280;34064;44.942;0.008;2023-01-26T06:20:40;99586.16;;;5.44;65.11
47280;BME280;34064;44.942;0.008;2023-01-26T06:23:07;99578.41;;;5.41;65.10
47280;BME280;34064;44.942;0.008;2023-01-26T06:25:38;99582.81;;;5.40;65.12
47280;BME280;34064;44.942;0.008;2023-01-26T06:28:06;99586.31;;;5.41;65.12
47280;BME280;34064;44.942;0.008;2023-01-26T06:30:33;99578.41;;;5.41;65.00
47280;BME280;34064;44.942;0.008;2023-01-26T06:33:01;99579.25;;;5.41;65.14
47280;BME280;34064;44.942;0.008;2023-01-26T06:35:28;99583.69;;;5.41;65.21
47280;BME280;34064;44.942;0.008;2023-01-26T06:37:56;99576.69;;;5.40;65.28
47280;BME280;34064;44.942;0.008;2023-01-26T06:40:24;99585.53;;;5.39;65.22
47280;BME280;34064;44.942;0.008;2023-01-26T06:42:54;99580.38;;;5.36;65.33
47280;BME280;34064;44.942;0.008;2023-01-26T06:45:22;99584.72;;;5.37;65.13
47280;BME280;34064;44.942;0.008;2023-01-26T06:47:50;99582.88;;;5.39;65.20
47280;BME280;34064;44.942;0.008;2023-01-26T06:50:21;99574.97;;;5.39;65.15
47280;BME280;34064;44.942;0.008;2023-01-26T06:52:54;99573.19;;;5.39;65.14
47280;BME280;34064;44.942;0.008;2023-01-26T06:55:37;99574.06;;;5.40;65.36
47280;BME280;34064;44.942;0.008;2023-01-26T06:58:06;99572.44;;;5.37;65.31
47280;BME280;34064;44.942;0.008;2023-01-26T07:00:36;99573.25;;;5.38;65.08
47280;BME280;34064;44.942;0.008;2023-01-26T07:03:05;99569.84;;;5.36;65.30
47280;BME280;34064;44.942;0.008;2023-01-26T07:05:33;99566.44;;;5.34;65.24
47280;BME280;34064;44.942;0.008;2023-01-26T07:08:00;99569.84;;;5.36;65.18
47280;BME280;34064;44.942;0.008;2023-01-26T07:10:30;99566.34;;;5.35;65.14
47280;BME280;34064;44.942;0.008;2023-01-26T07:12:58;99569.00;;;5.35;65.06
47280;BME280;34064;44.942;0.008;2023-01-26T07:15:25;99551.47;;;5.34;65.10
47280;BME280;34064;44.942;0.008;2023-01-26T07:17:53;99561.16;;;5.34;65.18
47280;BME280;34064;44.942;0.008;2023-01-26T07:20:20;99562.84;;;5.35;65.22
47280;BME280;34064;44.942;0.008;2023-01-26T07:22:52;99560.22;;;5.35;65.14
47280;BME280;34064;44.942;0.008;2023-01-26T07:25:20;99553.25;;;5.34;65.12
47280;BME280;34064;44.942;0.008;2023-01-26T07:27:55;99553.38;;;5.30;65.17
47280;BME280;34064;44.942;0.008;2023-01-26T07:30:23;99555.13;;;5.30;65.24
47280;BME280;34064;44.942;0.008;2023-01-26T07:32:51;99551.59;;;5.31;65.11
47280;BME280;34064;44.942;0.008;2023-01-26T07:35:18;99558.56;;;5.32;65.01
47280;BME280;34064;44.942;0.008;2023-01-26T07:37:45;99556.00;;;5.30;65.36
47280;BME280;34064;44.942;0.008;2023-01-26T07:40:12;99547.19;;;5.31;65.09
47280;BME280;34064;44.942;0.008;2023-01-26T07:42:39;99548.03;;;5.32;65.17
47280;BME280;34064;44.942;0.008;2023-01-26T07:45:05;99557.72;;;5.31;65.11
47280;BME280;34064;44.942;0.008;2023-01-26T07:47:32;99556.94;;;5.29;65.08
47280;BME280;34064;44.942;0.008;2023-01-26T07:49:58;99556.94;;;5.29;65.09
47280;BME280;34064;44.942;0.008;2023-01-26T07:52:25;99551.66;;;5.29;65.08
47280;BME280;34064;44.942;0.008;2023-01-26T07:54:51;99562.19;;;5.29;65.02
47280;BME280;34064;44.942;0.008;2023-01-26T07:57:18;99566.56;;;5.30;65.03
47280;BME280;34064;44.942;0.008;2023-01-26T07:59:45;99563.13;;;5.28;65.26
47280;BME280;34064;44.942;0.008;2023-01-26T08:02:11;99564.00;;;5.29;65.17
47280;BME280;34064;44.942;0.008;2023-01-26T08:04:40;99563.91;;;5.30;65.07
47280;BME280;34064;44.942;0.008;2023-01-26T08:07:06;99561.28;;;5.30;64.98
47280;BME280;34064;44.942;0.008;2023-01-26T08:09:35;99570.09;;;5.29;65.06
47280;BME280;34064;44.942;0.008;2023-01-26T08:12:01;99568.38;;;5.28;64.79
47280;BME280;34064;44.942;0.008;2023-01-26T08:14:28;99568.38;;;5.28;64.72
47280;BME280;34064;44.942;0.008;2023-01-26T08:16:54;99562.28;;;5.28;64.92
47280;BME280;34064;44.942;0.008;2023-01-26T08:19:20;99558.78;;;5.27;65.06
47280;BME280;34064;44.942;0.008;2023-01-26T08:21:47;99561.41;;;5.27;65.01
47280;BME280;34064;44.942;0.008;2023-01-26T08:24:13;99555.13;;;5.30;64.88
47280;BME280;34064;44.942;0.008;2023-01-26T08:26:39;99556.72;;;5.34;64.89
47280;BME280;34064;44.942;0.008;2023-01-26T08:29:06;99554.19;;;5.33;64.90
47280;BME280;34064;44.942;0.008;2023-01-26T08:31:32;99551.66;;;5.29;65.04
47280;BME280;34064;44.942;0.008;2023-01-26T08:33:59;99548.91;;;5.33;64.74
47280;BME280;34064;44.942;0.008;2023-01-26T08:36:25;99554.19;;;5.33;64.97
47280;BME280;34064;44.942;0.008;2023-01-26T08:38:53;99550.63;;;5.34;64.70
47280;BME280;34064;44.942;0.008;2023-01-26T08:41:20;99554.91;;;5.36;64.48
47280;BME280;34064;44.942;0.008;2023-01-26T08:43:46;99556.81;;;5.33;64.48
47280;BME280;34064;44.942;0.008;2023-01-26T08:46:13;99560.50;;;5.28;64.49
47280;BME280;34064;44.942;0.008;2023-01-26T08:48:39;99563.00;;;5.31;64.31
47280;BME280;34064;44.942;0.008;2023-01-26T08:51:06;99560.38;;;5.31;64.45
47280;BME280;34064;44.942;0.008;2023-01-26T08:53:34;99562.13;;;5.31;64.19
47280;BME280;34064;44.942;0.008;2023-01-26T08:56:08;99561.28;;;5.30;64.27
47280;BME280;34064;44.942;0.008;2023-01-26T08:58:35;99559.28;;;5.36;64.29
47280;BME280;34064;44.942;0.008;2023-01-26T09:01:10;99556.63;;;5.37;64.27
47280;BME280;34064;44.942;0.008;2023-01-26T09:03:37;99559.06;;;5.42;63.83
47280;BME280;34064;44.942;0.008;2023-01-26T09:06:05;99559.09;;;5.40;63.83
47280;BME280;34064;44.942;0.008;2023-01-26T09:08:32;99557.34;;;5.41;64.01
47280;BME280;34064;44.942;0.008;2023-01-26T09:10:59;99557.53;;;5.36;63.77
47280;BME280;34064;44.942;0.008;2023-01-26T09:13:25;99562.00;;;5.34;64.03
47280;BME280;34064;44.942;0.008;2023-01-26T09:15:52;99560.09;;;5.38;63.91
47280;BME280;34064;44.942;0.008;2023-01-26T09:18:18;99568.13;;;5.35;64.05
47280;BME280;34064;44.942;0.008;2023-01-26T09:20:45;99562.00;;;5.34;63.97
47280;BME280;34064;44.942;0.008;2023-01-26T09:23:11;99565.44;;;5.36;64.07
47280;BME280;34064;44.942;0.008;2023-01-26T09:25:39;99569.97;;;5.33;63.97
47280;BME280;34064;44.942;0.008;2023-01-26T09:28:05;99569.00;;;5.35;63.92
47280;BME280;34064;44.942;0.008;2023-01-26T09:30:32;99561.88;;;5.37;64.12
47280;BME280;34064;44.942;0.008;2023-01-26T09:32:59;99568.00;;;5.38;64.02
47280;BME280;34064;44.942;0.008;2023-01-26T09:35:27;99563.59;;;5.38;64.13
47280;BME280;34064;44.942;0.008;2023-01-26T09:37:56;99563.59;;;5.38;63.79
47280;BME280;34064;44.942;0.008;2023-01-26T09:52:05;99572.66;;;5.31;63.74
47280;BME280;34064;44.942;0.008;2023-01-26T09:55:05;99575.25;;;5.33;63.84
47280;BME280;34064;44.942;0.008;2023-01-26T09:57:47;99571.50;;;5.38;63.75
47280;BME280;34064;44.942;0.008;2023-01-26T10:03:37;99575.97;;;5.36;63.64
47280;BME280;34064;44.942;0.008;2023-01-26T10:06:26;99569.72;;;5.39;63.55
47280;BME280;34064;44.942;0.008;2023-01-26T10:09:00;99576.81;;;5.37;63.58
47280;BME280;34064;44.942;0.008;2023-01-26T10:11:50;99586.25;;;5.42;63.71
47280;BME280;34064;44.942;0.008;2023-01-26T10:16:53;99576.56;;;5.43;63.63
47280;BME280;34064;44.942;0.008;2023-01-26T10:19:36;99587.97;;;5.43;63.57
47280;BME280;34064;44.942;0.008;2023-01-26T10:24:59;99591.00;;;5.55;63.46
47280;BME280;34064;44.942;0.008;2023-01-26T10:27:45;99585.78;;;5.53;63.42
47280;BME280;34064;44.942;0.008;2023-01-26T10:30:15;99584.66;;;5.59;63.21
47280;BME280;34064;44.942;0.008;2023-01-26T10:32:44;99581.03;;;5.61;62.92
47280;BME280;34064;44.942;0.008;2023-01-26T10:35:19;99582.69;;;5.64;62.93
47280;BME280;34064;44.942;0.008;2023-01-26T10:37:47;99568.50;;;5.67;62.83
47280;BME280;34064;44.942;0.008;2023-01-26T10:40:13;99572.72;;;5.71;62.25
47280;BME280;34064;44.942;0.008;2023-01-26T10:42:40;99575.50;;;5.68;62.35
47280;BME280;34064;44.942;0.008;2023-01-26T10:45:25;99570.66;;;5.77;62.51
47280;BME280;34064;44.942;0.008;2023-01-26T10:50:44;99571.66;;;5.75;61.50
47280;BME280;34064;44.942;0.008;2023-01-26T10:53:37;99576.09;;;5.74;61.61
47280;BME280;34064;44.942;0.008;2023-01-26T10:56:05;99571.66;;;5.75;61.95
47280;BME280;34064;44.942;0.008;2023-01-26T11:01:14;99572.66;;;5.72;61.51
47280;BME280;34064;44.942;0.008;2023-01-26T11:04:04;99574.22;;;5.76;61.52
47280;BME280;34064;44.942;0.008;2023-01-26T11:06:32;99574.28;;;5.75;61.35
47280;BME280;34064;44.942;0.008;2023-01-26T11:11:58;99566.50;;;5.72;61.01
47280;BME280;34064;44.942;0.008;2023-01-26T11:14:29;99562.81;;;5.76;60.41
47280;BME280;34064;44.942;0.008;2023-01-26T11:17:21;99571.72;;;5.73;60.36
47280;BME280;34064;44.942;0.008;2023-01-26T11:20:28;99570.09;;;5.71;60.70
47280;BME280;34064;44.942;0.008;2023-01-26T11:23:00;99563.13;;;5.70;60.71
47280;BME280;34064;44.942;0.008;2023-01-26T11:28:49;99559.41;;;5.74;60.67
47280;BME280;34064;44.942;0.008;2023-01-26T11:31:48;99562.94;;;5.73;60.97
47280;BME280;34064;44.942;0.008;2023-01-26T11:34:34;99564.53;;;5.77;60.94
47280;BME280;34064;44.942;0.008;2023-01-26T11:51:49;99545.16;;;5.78;60.04
47280;BME280;34064;44.942;0.008;2023-01-26T12:02:37;99545.41;;;5.72;59.54
47280;BME280;34064;44.942;0.008;2023-01-26T12:05:22;99538.31;;;5.74;58.95
47280;BME280;34064;44.942;0.008;2023-01-26T12:10:40;99532.97;;;5.75;58.88
47280;BME280;34064;44.942;0.008;2023-01-26T12:16:21;99532.97;;;5.75;58.78
47280;BME280;34064;44.942;0.008;2023-01-26T12:21:49;99536.59;;;5.73;59.02
47280;BME280;34064;44.942;0.008;2023-01-26T12:24:32;99529.34;;;5.78;58.36
47280;BME280;34064;44.942;0.008;2023-01-26T12:27:02;99533.19;;;5.71;58.57
47280;BME280;34064;44.942;0.008;2023-01-26T12:30:00;99524.19;;;5.75;57.96
47280;BME280;34064;44.942;0.008;2023-01-26T12:32:29;99518.09;;;5.74;57.76
47280;BME280;34064;44.942;0.008;2023-01-26T12:34:56;99522.66;;;5.71;57.22
47280;BME280;34064;44.942;0.008;2023-01-26T12:40:25;99517.63;;;5.65;57.48
47280;BME280;34064;44.942;0.008;2023-01-26T12:43:12;99508.78;;;5.66;57.64
47280;BME280;34064;44.942;0.008;2023-01-26T12:45:42;99495.41;;;5.70;57.88
47280;BME280;34064;44.942;0.008;2023-01-26T12:51:26;99488.00;;;5.78;57.73
47280;BME280;34064;44.942;0.008;2023-01-26T12:54:02;99481.47;;;5.87;57.41
47280;BME280;34064;44.942;0.008;2023-01-26T12:56:43;99466.91;;;5.98;57.80
47280;BME280;34064;44.942;0.008;2023-01-26T12:59:19;99453.81;;;6.15;57.30
47280;BME280;34064;44.942;0.008;2023-01-26T13:01:47;99452.72;;;6.19;57.04
47280;BME280;34064;44.942;0.008;2023-01-26T13:04:14;99444.66;;;6.22;57.05
47280;BME280;34064;44.942;0.008;2023-01-26T13:06:42;99439.06;;;6.29;56.70
47280;BME280;34064;44.942;0.008;2023-01-26T13:09:23;99443.28;;;6.33;56.29
47280;BME280;34064;44.942;0.008;2023-01-26T13:11:59;99444.22;;;6.32;56.65
47280;BME280;34064;44.942;0.008;2023-01-26T13:16:52;99439.63;;;6.35;55.84
47280;BME280;34064;44.942;0.008;2023-01-26T13:22:36;99442.59;;;6.29;55.55
47280;BME280;34064;44.942;0.008;2023-01-26T13:25:30;99443.91;;;6.38;55.22
47280;BME280;34064;44.942;0.008;2023-01-26T13:28:02;99435.94;;;6.39;55.24
47280;BME280;34064;44.942;0.008;2023-01-26T13:30:38;99427.94;;;6.41;54.35
47280;BME280;34064;44.942;0.008;2023-01-26T13:33:21;99426.53;;;6.51;54.62
47280;BME280;34064;44.942;0.008;2023-01-26T13:35:51;99419.41;;;6.53;54.04
47280;BME280;34064;44.942;0.008;2023-01-26T13:38:26;99410.72;;;6.51;54.69
47280;BME280;34064;44.942;0.008;2023-01-26T13:40:57;99415.59;;;6.42;54.35
47280;BME280;34064;44.942;0.008;2023-01-26T13:43:34;99415.50;;;6.43;55.02
47280;BME280;34064;44.942;0.008;2023-01-26T13:46:16;99415.38;;;6.46;55.33
47280;BME280;34064;44.942;0.008;2023-01-26T13:48:53;99410.84;;;6.48;55.21
47280;BME280;34064;44.942;0.008;2023-01-26T13:53:58;99401.31;;;6.46;54.71
47280;BME280;34064;44.942;0.008;2023-01-26T13:56:38;99402.94;;;6.48;54.97
47280;BME280;34064;44.942;0.008;2023-01-26T13:59:13;99412.66;;;6.48;55.13
47280;BME280;34064;44.942;0.008;2023-01-26T14:01:41;99408.06;;;6.51;55.03
47280;BME280;34064;44.942;0.008;2023-01-26T14:04:17;99402.88;;;6.50;55.15
47280;BME280;34064;44.942;0.008;2023-01-26T14:06:50;99398.28;;;6.53;54.65
47280;BME280;34064;44.942;0.008;2023-01-26T14:09:18;99402.00;;;6.49;54.94
47280;BME280;34064;44.942;0.008;2023-01-26T14:11:52;99405.50;;;6.50;55.21
47280;BME280;34064;44.942;0.008;2023-01-26T14:14:36;99403.63;;;6.52;55.38
47280;BME280;34064;44.942;0.008;2023-01-26T14:17:26;99397.19;;;6.58;55.04
47280;BME280;34064;44.942;0.008;2023-01-26T14:19:56;99398.91;;;6.59;55.27
47280;BME280;34064;44.942;0.008;2023-01-26T14:22:25;99397.19;;;6.58;55.48
47280;BME280;34064;44.942;0.008;2023-01-26T14:24:52;99391.06;;;6.57;55.37
47280;BME280;34064;44.942;0.008;2023-01-26T14:27:38;99398.97;;;6.57;55.40
47280;BME280;34064;44.942;0.008;2023-01-26T14:32:51;99397.19;;;6.58;55.12
47280;BME280;34064;44.942;0.008;2023-01-26T14:35:21;99400.75;;;6.56;55.26
47280;BME280;34064;44.942;0.008;2023-01-26T14:37:49;99397.50;;;6.51;55.56
47280;BME280;34064;44.942;0.008;2023-01-26T14:40:22;99394.78;;;6.53;55.76
47280;BME280;34064;44.942;0.008;2023-01-26T14:42:52;99395.66;;;6.53;55.95
47280;BME280;34064;44.942;0.008;2023-01-26T14:45:30;99388.50;;;6.55;55.80
47280;BME280;34064;44.942;0.008;2023-01-26T14:48:05;99393.00;;;6.53;56.01
47280;BME280;34064;44.942;0.008;2023-01-26T14:50:36;99390.13;;;6.58;56.12
47280;BME280;34064;44.942;0.008;2023-01-26T14:53:04;99390.75;;;6.63;56.06
47280;BME280;34064;44.942;0.008;2023-01-26T14:55:33;99387.25;;;6.63;56.06
47280;BME280;34064;44.942;0.008;2023-01-26T14:58:03;99392.63;;;6.61;55.99
47280;BME280;34064;44.942;0.008;2023-01-26T15:00:38;99384.63;;;6.63;56.06
47280;BME280;34064;44.942;0.008;2023-01-26T15:03:11;99386.38;;;6.62;56.34
47280;BME280;34064;44.942;0.008;2023-01-26T15:05:44;99391.63;;;6.64;56.40